Time;durP1;ratioP1;P1;durP2;ratioP2;P2;SDS_P1;SDS_P2;PMS_P1;PMS_P2;Temp;Humidity;BMP_temperature;BMP_pressure;BME280_temperature;BME280_humidity;BME280_pressure;Samples;Min_cycle;Max_cycle;Signal;HPM_P1;HPM_P2
2022/05/27 03:09:08;;;;;;;;;;;;;;;21.51;44.95;95664.50;2026439;28;1361122;-65
2022/05/27 03:10:21;;;;;;;;;;;;;;;21.37;45.14;95666.31;2082581;28;1906;-64
2022/05/27 03:11:28;;;;;;;;;;;;;;;21.26;45.01;95659.72;2082778;28;1997;-64
2022/05/27 03:12:37;;;;;;;;;;;;;;;21.15;45.38;95650.38;2082736;28;1130;-64
2022/05/27 03:13:58;;;;;;;;;;;;;;;21.17;45.42;95661.75;2081741;28;1562;-65
2022/05/27 03:15:10;;;;;;;;;;;;;;;21.17;45.34;95651.06;2082293;28;1102;-64
2022/05/27 03:16:15;;;;;;;;;;;;;;;21.15;45.13;95658.41;2082772;28;1018;-64
2022/05/27 03:17:23;;;;;;;;;;;;;;;21.16;45.14;95654.69;2082695;28;1159;-65
2022/05/27 03:18:35;;;;;;;;;;;;;;;21.21;44.93;95662.97;2082725;28;1081;-64
2022/05/27 03:19:46;;;;;;;;;;;;;;;21.25;45.06;95666.06;2081201;28;1717;-65
2022/05/27 03:20:51;;;;;;;;;;;;;;;21.21;45.15;95668.31;2077352;28;1810;-63
2022/05/27 03:21:57;;;;;;;;;;;;;;;21.26;45.24;95666.91;2082653;28;1510;-63
2022/05/27 03:23:06;;;;;;;;;;;;;;;21.29;45.04;95669.19;2081136;28;1535;-64
2022/05/27 03:24:15;;;;;;;;;;;;;;;21.16;45.14;95675.25;2074555;28;1002;-64
2022/05/27 03:25:22;;;;;;;;;;;;;;;21.15;45.13;95671.78;2074450;28;1066;-66
2022/05/27 03:26:27;;;;;;;;;;;;;;;21.17;45.16;95667.09;2080370;28;1582;-63
2022/05/27 03:27:34;;;;;;;;;;;;;;;21.14;45.11;95671.94;2082587;28;1196;-63
2022/05/27 03:28:40;;;;;;;;;;;;;;;21.11;45.25;95672.34;2078744;28;1823;-63
2022/05/27 03:29:47;;;;;;;;;;;;;;;21.10;45.20;95670.72;2082409;28;1836;-63
2022/05/27 03:30:52;;;;;;;;;;;;;;;21.09;44.99;95675.25;2082412;28;1989;-64
2022/05/27 03:31:59;;;;;;;;;;;;;;;21.10;44.87;95673.38;2074021;28;1435;-64
2022/05/27 03:33:06;;;;;;;;;;;;;;;21.11;44.74;95667.81;2082032;28;1752;-64
2022/05/27 03:34:14;;;;;;;;;;;;;;;21.08;44.79;95670.91;2082851;28;990;-63
2022/05/27 03:35:22;;;;;;;;;;;;;;;21.07;44.84;95663.91;2082568;28;1094;-64
2022/05/27 03:36:30;;;;;;;;;;;;;;;21.04;44.68;95667.00;2082272;28;1057;-64
2022/05/27 03:37:34;;;;;;;;;;;;;;;21.04;44.99;95668.84;2082324;28;1788;-62
2022/05/27 03:38:40;;;;;;;;;;;;;;;21.02;45.06;95661.00;2082543;28;1732;-64
2022/05/27 03:39:47;;;;;;;;;;;;;;;20.96;45.16;95656.47;2077213;28;1721;-65
2022/05/27 03:40:53;;;;;;;;;;;;;;;21.00;45.20;95668.41;2073006;28;1588;-64
2022/05/27 03:41:58;;;;;;;;;;;;;;;21.00;45.17;95671.09;2071782;28;1382;-63
2022/05/27 03:43:01;;;;;;;;;;;;;;;21.02;45.22;95669.03;2074063;28;1106;-64
2022/05/27 03:44:14;;;;;;;;;;;;;;;20.94;45.13;95664.69;2075453;28;1138;-63
2022/05/27 03:45:17;;;;;;;;;;;;;;;;;;2076741;28;1419;-61
2022/05/27 03:46:26;;;;;;;;;;;;;;;21.40;44.31;95665.94;2078241;28;1076;-65
2022/05/27 03:47:29;;;;;;;;;;;;;;;21.33;44.28;95657.88;2074699;28;1437;-73
2022/05/27 03:48:32;;;;;;;;;;;;;;;21.36;44.74;95665.50;2076162;28;1476;-61
2022/05/27 03:49:34;;;;;;;;;;;;;;;21.27;44.65;95661.34;2073825;28;1491;-62
2022/05/27 03:50:36;;;;;;;;;;;;;;;21.21;44.53;95662.97;2070530;28;1942;-61
2022/05/27 03:51:45;;;;;;;;;;;;;;;21.19;44.78;95664.19;2072342;28;1215;-61
2022/05/27 03:52:49;;;;;;;;;;;;;;;21.20;45.04;95664.00;2072234;28;1350;-61
2022/05/27 03:54:03;;;;;;;;;;;;;;;21.18;45.09;95667.91;2073622;28;1481;-62
2022/05/27 03:55:11;;;;;;;;;;;;;;;21.20;44.90;95665.88;2072442;28;1230;-62
2022/05/27 03:56:13;;;;;;;;;;;;;;;21.22;44.98;95664.63;2074730;28;1728;-61
2022/05/27 03:57:16;;;;;;;;;;;;;;;21.18;44.94;95655.38;2082286;28;1635;-61
2022/05/27 03:58:17;;;;;;;;;;;;;;;21.16;45.11;95668.06;2082065;28;1129;-61
2022/05/27 03:59:21;;;;;;;;;;;;;;;21.07;45.15;95663.91;2081450;28;1580;-64
2022/05/27 04:00:24;;;;;;;;;;;;;;;21.07;44.71;95666.59;2082692;28;1821;-66
2022/05/27 04:01:29;;;;;;;;;;;;;;;21.01;45.10;95665.53;2080240;28;1808;-61
2022/05/27 04:02:32;;;;;;;;;;;;;;;20.97;45.12;95660.78;2081283;28;1753;-67
2022/05/27 04:03:33;;;;;;;;;;;;;;;21.01;45.01;95664.72;2071658;28;1575;-65
2022/05/27 04:04:36;;;;;;;;;;;;;;;21.11;45.33;95667.81;2075100;28;1517;-64
2022/05/27 04:05:39;;;;;;;;;;;;;;;21.24;45.02;95661.75;2071413;28;1379;-63
2022/05/27 04:06:41;;;;;;;;;;;;;;;21.53;44.32;95662.47;2072736;28;1401;-66
2022/05/27 04:07:44;;;;;;;;;;;;;;;21.77;43.72;95667.25;2077086;28;1402;-64
2022/05/27 04:08:46;;;;;;;;;;;;;;;21.94;43.39;95665.03;2077396;28;1478;-60
2022/05/27 04:09:49;;;;;;;;;;;;;;;21.73;43.94;95659.84;2078316;28;1169;-62
2022/05/27 04:10:52;;;;;;;;;;;;;;;21.44;44.58;95661.81;2071257;28;1906;-62
2022/05/27 04:11:56;;;;;;;;;;;;;;;21.22;44.39;95659.28;2075339;28;1811;-63
2022/05/27 04:12:58;;;;;;;;;;;;;;;21.13;44.63;95667.66;2070896;28;1547;-63
2022/05/27 04:14:01;;;;;;;;;;;;;;;21.07;45.07;95663.09;2079107;28;1150;-62
2022/05/27 04:15:05;;;;;;;;;;;;;;;21.00;45.27;95660.41;2074987;28;1797;-60
2022/05/27 04:16:06;;;;;;;;;;;;;;;21.03;45.14;95665.34;2073456;28;1042;-60
2022/05/27 04:18:29;;;;;;;;;;;;;;;21.01;45.09;95656.69;2080584;28;1489;-61
2022/05/27 04:19:31;;;;;;;;;;;;;;;20.88;45.32;95661.97;2081294;28;1208;-61
2022/05/27 04:20:34;;;;;;;;;;;;;;;20.88;45.51;95659.28;2078601;28;1682;-61
2022/05/27 04:21:36;;;;;;;;;;;;;;;20.84;45.50;95666.06;2074658;28;1069;-61
2022/05/27 04:22:39;;;;;;;;;;;;;;;20.85;45.37;95667.72;2072430;28;1062;-62
2022/05/27 04:23:46;;;;;;;;;;;;;;;20.83;45.30;95661.72;2072997;28;1176;-61
2022/05/27 04:24:48;;;;;;;;;;;;;;;20.83;45.27;95659.06;2073249;28;1217;-61
2022/05/27 04:25:52;;;;;;;;;;;;;;;20.81;45.39;95667.28;2073095;28;1031;-61
2022/05/27 04:26:55;;;;;;;;;;;;;;;20.86;45.31;95658.66;2073922;28;1358;-61
2022/05/27 04:27:56;;;;;;;;;;;;;;;20.99;45.34;95664.06;2070517;28;1564;-61
2022/05/27 04:29:00;;;;;;;;;;;;;;;21.02;45.06;95663.69;2070466;28;1187;-63
2022/05/27 04:30:04;;;;;;;;;;;;;;;20.97;45.09;95658.09;2075486;28;1086;-62
2022/05/27 04:31:07;;;;;;;;;;;;;;;20.97;44.98;95661.63;2074380;28;1906;-63
2022/05/27 04:32:11;;;;;;;;;;;;;;;20.95;45.42;95662.84;2074879;28;1058;-63
2022/05/27 04:33:14;;;;;;;;;;;;;;;20.99;45.75;95656.06;2075379;28;1122;-61
2022/05/27 04:34:15;;;;;;;;;;;;;;;21.10;45.38;95660.84;2075313;28;1074;-63
2022/05/27 04:35:18;;;;;;;;;;;;;;;21.07;45.26;95655.91;2075026;28;994;-65
2022/05/27 04:36:20;;;;;;;;;;;;;;;21.07;45.45;95660.44;2075437;28;1090;-62
2022/05/27 04:37:23;;;;;;;;;;;;;;;21.04;45.28;95650.13;2075659;28;1087;-66
2022/05/27 04:38:26;;;;;;;;;;;;;;;21.08;45.43;95657.53;2075227;28;1193;-62
2022/05/27 04:39:28;;;;;;;;;;;;;;;21.07;45.36;95645.22;2070061;28;1525;-61
2022/05/27 04:40:31;;;;;;;;;;;;;;;21.03;45.41;95652.00;2069611;28;1136;-62
2022/05/27 04:41:35;;;;;;;;;;;;;;;21.04;45.42;95656.31;2074562;28;1361;-62
2022/05/27 04:42:37;;;;;;;;;;;;;;;21.10;45.22;95652.00;2073939;28;1173;-61
2022/05/27 04:43:40;;;;;;;;;;;;;;;21.05;45.59;95654.44;2074610;28;1019;-62
2022/05/27 04:44:42;;;;;;;;;;;;;;;21.05;45.61;95657.94;2074469;28;1049;-64
2022/05/27 04:45:45;;;;;;;;;;;;;;;21.04;45.47;95656.31;2074469;28;1185;-62
2022/05/27 04:46:47;;;;;;;;;;;;;;;21.05;45.55;95652.59;2074129;28;1170;-64
2022/05/27 04:47:50;;;;;;;;;;;;;;;21.04;45.30;95650.13;2074567;28;1521;-63
2022/05/27 04:48:51;;;;;;;;;;;;;;;21.07;45.40;95652.41;2073946;28;1062;-63
2022/05/27 04:49:54;;;;;;;;;;;;;;;21.07;45.19;95655.09;2073173;28;1010;-63
2022/05/27 04:50:58;;;;;;;;;;;;;;;21.11;45.20;95648.31;2069970;28;1118;-63
2022/05/27 04:52:00;;;;;;;;;;;;;;;21.09;45.16;95659.22;2069846;28;1910;-62
2022/05/27 04:53:03;;;;;;;;;;;;;;;21.16;44.98;95660.03;2074710;28;1011;-62
2022/05/27 04:54:05;;;;;;;;;;;;;;;21.14;45.15;95664.78;2074628;28;1018;-62
2022/05/27 04:55:10;;;;;;;;;;;;;;;21.15;45.50;95655.72;2075089;28;1066;-65
2022/05/27 04:56:12;;;;;;;;;;;;;;;21.13;45.36;95660.44;2075337;28;1049;-61
2022/05/27 04:57:18;;;;;;;;;;;;;;;21.08;45.57;95665.56;2074198;28;1114;-62
2022/05/27 04:58:21;;;;;;;;;;;;;;;21.09;45.48;95663.72;2075059;28;1136;-62
2022/05/27 04:59:23;;;;;;;;;;;;;;;21.13;45.27;95660.44;2075080;28;1070;-62
2022/05/27 05:00:27;;;;;;;;;;;;;;;21.11;45.66;95667.81;2074911;28;1026;-63
2022/05/27 05:01:28;;;;;;;;;;;;;;;21.11;45.72;95667.00;2075229;28;1113;-62
2022/05/27 05:02:32;;;;;;;;;;;;;;;21.11;45.68;95659.00;2069262;28;1095;-64
2022/05/27 05:03:40;;;;;;;;;;;;;;;21.10;45.69;95665.38;2074450;28;1512;-62
2022/05/27 05:04:42;;;;;;;;;;;;;;;21.14;45.82;95656.78;2074241;28;1134;-62
2022/05/27 05:05:45;;;;;;;;;;;;;;;21.21;45.54;95660.31;2075064;28;1895;-63
2022/05/27 05:06:47;;;;;;;;;;;;;;;21.26;45.69;95661.56;2074864;28;1171;-62
2022/05/27 05:07:51;;;;;;;;;;;;;;;21.20;45.65;95650.66;2074975;28;1521;-62
2022/05/27 05:08:53;;;;;;;;;;;;;;;21.23;45.81;95655.59;2075073;28;1142;-62
2022/05/27 05:09:57;;;;;;;;;;;;;;;21.28;45.80;95654.16;2074834;28;1142;-62
2022/05/27 05:11:02;;;;;;;;;;;;;;;21.28;45.70;95659.50;2075140;28;1085;-64
2022/05/27 05:12:04;;;;;;;;;;;;;;;21.28;45.50;95659.50;2074271;28;2050;-61
2022/05/27 05:13:09;;;;;;;;;;;;;;;21.29;45.70;95653.16;2075045;28;1090;-62
2022/05/27 05:14:10;;;;;;;;;;;;;;;21.34;45.78;95656.88;2067304;28;1134;-62
2022/05/27 05:15:14;;;;;;;;;;;;;;;21.41;45.47;95656.88;2074780;28;1482;-62
2022/05/27 05:16:16;;;;;;;;;;;;;;;21.51;45.35;95661.84;2075208;28;1089;-68
2022/05/27 05:17:18;;;;;;;;;;;;;;;21.53;45.38;95654.44;2074732;28;1109;-64
2022/05/27 05:18:20;;;;;;;;;;;;;;;21.50;45.51;95655.66;2074569;28;1114;-63
2022/05/27 05:19:23;;;;;;;;;;;;;;;21.45;45.79;95656.28;2074773;28;1062;-62
2022/05/27 05:20:26;;;;;;;;;;;;;;;21.41;45.82;95660.38;2074738;28;1118;-63
2022/05/27 05:21:29;;;;;;;;;;;;;;;21.42;45.79;95655.84;2075275;28;1197;-62
2022/05/27 05:22:31;;;;;;;;;;;;;;;21.44;45.71;95661.81;2074947;28;1098;-64
2022/05/27 05:23:34;;;;;;;;;;;;;;;21.48;45.77;95652.38;2075051;28;1015;-63
2022/05/27 05:24:35;;;;;;;;;;;;;;;21.52;45.99;95650.13;2072898;28;1575;-62
2022/05/27 05:25:39;;;;;;;;;;;;;;;21.61;45.62;95655.06;2068900;28;1014;-63
2022/05/27 05:26:41;;;;;;;;;;;;;;;21.68;45.71;95658.59;2074483;28;1695;-62
2022/05/27 05:27:43;;;;;;;;;;;;;;;21.74;45.75;95650.78;2074717;28;1062;-62
2022/05/27 05:28:47;;;;;;;;;;;;;;;21.78;45.56;95655.53;2074827;28;1112;-63
2022/05/27 05:29:49;;;;;;;;;;;;;;;21.79;45.34;95656.34;2075041;28;1130;-64
2022/05/27 05:30:52;;;;;;;;;;;;;;;21.86;45.35;95654.50;2074944;28;1113;-64
2022/05/27 05:31:54;;;;;;;;;;;;;;;21.81;45.25;95651.63;2075004;28;1014;-62
2022/05/27 05:32:57;;;;;;;;;;;;;;;21.82;45.50;95646.06;2074770;28;1907;-62
2022/05/27 05:33:59;;;;;;;;;;;;;;;21.86;45.44;95654.50;2073970;28;1110;-62
2022/05/27 05:35:02;;;;;;;;;;;;;;;21.87;45.57;95656.97;2075444;28;1184;-62
2022/05/27 05:36:04;;;;;;;;;;;;;;;21.89;45.66;95656.78;2070486;28;1082;-62
2022/05/27 05:37:07;;;;;;;;;;;;;;;21.89;45.60;95654.09;2070130;28;1193;-61
2022/05/27 05:38:10;;;;;;;;;;;;;;;21.88;45.55;95655.97;2074646;28;1185;-62
2022/05/27 05:39:12;;;;;;;;;;;;;;;21.93;45.57;95658.00;2074959;28;1002;-64
2022/05/27 05:40:15;;;;;;;;;;;;;;;21.99;45.18;95649.19;2075058;28;1293;-62
2022/05/27 05:41:26;;;;;;;;;;;;;;;22.04;44.86;95651.25;2074598;28;1311;-63
2022/05/27 05:42:29;;;;;;;;;;;;;;;22.08;44.54;95653.34;2074958;28;1106;-63
2022/05/27 05:43:32;;;;;;;;;;;;;;;22.11;44.35;95652.91;2074906;28;1695;-61
2022/05/27 05:44:35;;;;;;;;;;;;;;;22.12;44.51;95651.06;2074778;28;1106;-62
2022/05/27 05:45:38;;;;;;;;;;;;;;;22.10;44.64;95656.59;2074877;28;1018;-61
2022/05/27 05:46:40;;;;;;;;;;;;;;;22.19;44.55;95651.88;2074438;28;1053;-61
2022/05/27 05:47:43;;;;;;;;;;;;;;;22.30;44.68;95658.47;2070528;28;1098;-61
2022/05/27 05:48:45;;;;;;;;;;;;;;;22.31;44.43;95655.59;2069629;28;1207;-61
2022/05/27 05:49:48;;;;;;;;;;;;;;;22.28;44.18;95653.31;2074805;28;1106;-63
2022/05/27 05:50:50;;;;;;;;;;;;;;;22.32;44.26;95656.41;2074826;28;1135;-61
2022/05/27 05:51:54;;;;;;;;;;;;;;;22.43;44.20;95652.28;2074623;28;1014;-61
2022/05/27 05:52:57;;;;;;;;;;;;;;;22.58;43.85;95659.03;2074580;28;1887;-61
2022/05/27 05:53:59;;;;;;;;;;;;;;;22.69;43.94;95649.56;2074712;28;1035;-62
2022/05/27 05:55:03;;;;;;;;;;;;;;;22.75;43.67;95653.28;2075102;28;1062;-61
2022/05/27 05:56:05;;;;;;;;;;;;;;;22.71;43.98;95652.88;2074134;28;1118;-64
2022/05/27 05:57:08;;;;;;;;;;;;;;;22.65;43.74;95655.53;2074539;28;1055;-61
2022/05/27 05:58:10;;;;;;;;;;;;;;;22.61;44.04;95652.44;2074503;28;1163;-62
2022/05/27 05:59:14;;;;;;;;;;;;;;;22.60;43.88;95660.72;2078151;28;1083;-61
2022/05/27 06:00:19;;;;;;;;;;;;;;;22.62;44.14;95653.25;2079503;28;1287;-61
2022/05/27 06:01:22;;;;;;;;;;;;;;;22.64;44.15;95652.03;2082667;28;1685;-61
2022/05/27 06:02:24;;;;;;;;;;;;;;;22.70;44.07;95658.41;2082533;28;1177;-62
2022/05/27 06:03:28;;;;;;;;;;;;;;;22.74;44.16;95654.31;2082524;28;1192;-61
2022/05/27 06:04:29;;;;;;;;;;;;;;;22.79;43.81;95655.34;2082360;28;967;-61
2022/05/27 06:05:33;;;;;;;;;;;;;;;22.81;43.83;95652.44;2082911;28;1165;-61
2022/05/27 06:06:35;;;;;;;;;;;;;;;22.83;43.96;95653.06;2082447;28;1090;-62
2022/05/27 06:07:37;;;;;;;;;;;;;;;22.84;44.16;95665.41;2082545;28;1061;-62
2022/05/27 06:08:39;;;;;;;;;;;;;;;22.83;44.08;95655.75;2082562;28;1312;-61
2022/05/27 06:09:42;;;;;;;;;;;;;;;22.87;43.81;95656.13;2082493;28;1232;-62
2022/05/27 06:10:44;;;;;;;;;;;;;;;22.91;43.61;95663.56;2074681;28;1028;-65
2022/05/27 06:11:47;;;;;;;;;;;;;;;22.94;43.40;95655.09;2081398;28;1318;-62
2022/05/27 06:12:49;;;;;;;;;;;;;;;22.95;43.59;95662.09;2082512;28;1910;-61
2022/05/27 06:13:55;;;;;;;;;;;;;;;22.96;43.48;95657.53;2082940;28;1054;-63
2022/05/27 06:14:57;;;;;;;;;;;;;;;23.01;43.53;95658.56;2082607;28;1251;-61
2022/05/27 06:16:01;;;;;;;;;;;;;;;23.08;43.16;95661.22;2082816;28;1130;-61
2022/05/27 06:17:03;;;;;;;;;;;;;;;23.12;43.15;95659.75;2082720;28;1286;-61
2022/05/27 06:18:07;;;;;;;;;;;;;;;23.17;42.88;95657.28;2082168;28;1197;-63
2022/05/27 06:19:08;;;;;;;;;;;;;;;23.22;42.73;95656.66;2082343;28;1027;-62
2022/05/27 06:20:11;;;;;;;;;;;;;;;23.24;42.79;95651.88;2082787;28;994;-61
2022/05/27 06:21:13;;;;;;;;;;;;;;;23.22;42.62;95649.44;2082603;28;1217;-61
2022/05/27 06:22:16;;;;;;;;;;;;;;;23.22;42.88;95653.97;2074135;28;1125;-61
2022/05/27 06:23:18;;;;;;;;;;;;;;;23.23;42.77;95650.25;2082650;28;1488;-64
2022/05/27 06:24:21;;;;;;;;;;;;;;;23.25;42.70;95645.50;2082463;28;1113;-62
2022/05/27 06:25:24;;;;;;;;;;;;;;;23.29;42.69;95651.25;2082519;28;1118;-62
2022/05/27 06:26:27;;;;;;;;;;;;;;;23.31;42.37;95641.97;2082414;28;1014;-62
2022/05/27 06:27:28;;;;;;;;;;;;;;;23.38;42.43;95647.28;2082757;28;1104;-61
2022/05/27 06:35:14;;;;;;;;;;;;;;;23.55;42.32;95643.09;2082514;28;1229;-62
2022/05/27 06:36:16;;;;;;;;;;;;;;;23.58;42.11;95641.84;2082863;28;1090;-63
2022/05/27 06:37:21;;;;;;;;;;;;;;;23.61;41.87;95644.09;2082490;28;1102;-63
2022/05/27 06:38:23;;;;;;;;;;;;;;;23.63;41.67;95644.69;2082515;28;1053;-64
2022/05/27 06:39:27;;;;;;;;;;;;;;;23.66;41.48;95649.63;2082651;28;1130;-62
2022/05/27 06:40:35;;;;;;;;;;;;;;;23.66;41.58;95653.13;2081922;28;1122;-63
2022/05/27 06:41:38;;;;;;;;;;;;;;;23.68;41.71;95644.88;2083102;28;1054;-66
2022/05/27 06:42:40;;;;;;;;;;;;;;;23.69;41.48;95654.56;2082341;28;1104;-63
2022/05/27 06:43:45;;;;;;;;;;;;;;;23.70;41.55;95640.09;2082332;28;1212;-62
2022/05/27 06:44:48;;;;;;;;;;;;;;;23.70;41.76;95645.47;2074563;28;1170;-65
2022/05/27 06:45:50;;;;;;;;;;;;;;;23.71;41.60;95644.44;2082014;28;1088;-63
2022/05/27 06:46:54;;;;;;;;;;;;;;;23.71;41.72;95641.78;2082373;28;1141;-62
2022/05/27 06:47:56;;;;;;;;;;;;;;;23.71;41.74;95641.78;2081547;28;1227;-63
2022/05/27 06:48:59;;;;;;;;;;;;;;;23.73;41.65;95637.00;2082225;28;1015;-63
2022/05/27 06:50:01;;;;;;;;;;;;;;;23.75;41.59;95640.28;2082002;28;1122;-62
2022/05/27 06:51:05;;;;;;;;;;;;;;;23.78;41.64;95641.72;2082307;28;1046;-62
2022/05/27 06:52:07;;;;;;;;;;;;;;;23.78;41.67;95634.47;2082482;28;1104;-63
2022/05/27 06:53:10;;;;;;;;;;;;;;;23.78;41.42;95629.13;2082290;28;1030;-64
2022/05/27 06:54:12;;;;;;;;;;;;;;;23.80;41.75;95634.28;2082154;28;1910;-63
2022/05/27 06:55:16;;;;;;;;;;;;;;;23.80;41.41;95628.91;2082376;28;1141;-63
2022/05/27 06:56:18;;;;;;;;;;;;;;;23.80;41.76;95628.91;2072751;28;1122;-63
2022/05/27 06:57:20;;;;;;;;;;;;;;;23.80;41.55;95627.03;2082325;28;1258;-64
2022/05/27 06:58:22;;;;;;;;;;;;;;;23.80;41.69;95635.09;2080305;28;1295;-62
2022/05/27 06:59:25;;;;;;;;;;;;;;;23.82;41.55;95627.66;2073864;28;991;-62
2022/05/27 07:00:28;;;;;;;;;;;;;;;23.84;41.67;95627.44;2074120;28;1050;-62
2022/05/27 07:01:30;;;;;;;;;;;;;;;23.88;41.38;95626.78;2074102;28;1538;-62
2022/05/27 07:02:34;;;;;;;;;;;;;;;23.89;41.33;95631.09;2074039;28;1057;-62
2022/05/27 07:03:37;;;;;;;;;;;;;;;23.92;41.20;95624.47;2073547;28;1166;-62
2022/05/27 07:04:40;;;;;;;;;;;;;;;23.94;41.40;95630.47;2074246;28;993;-63
2022/05/27 07:05:42;;;;;;;;;;;;;;;23.95;41.33;95625.91;2074362;28;1497;-62
2022/05/27 07:06:46;;;;;;;;;;;;;;;23.97;41.45;95626.53;2072499;28;1030;-64
2022/05/27 07:07:49;;;;;;;;;;;;;;;23.98;41.46;95628.16;2068384;28;1025;-62
2022/05/27 07:08:52;;;;;;;;;;;;;;;23.98;41.46;95628.16;2073563;28;1944;-64
2022/05/27 07:09:55;;;;;;;;;;;;;;;24.01;41.30;95627.72;2074261;28;1082;-62
2022/05/27 07:10:57;;;;;;;;;;;;;;;24.02;41.46;95615.97;2073748;28;1157;-61
2022/05/27 07:12:00;;;;;;;;;;;;;;;24.03;41.38;95620.28;2074127;28;1058;-61
2022/05/27 07:13:02;;;;;;;;;;;;;;;24.02;41.36;95626.69;2074296;28;1050;-61
2022/05/27 07:14:04;;;;;;;;;;;;;;;24.02;41.25;95618.66;2073891;28;1909;-61
2022/05/27 07:15:08;;;;;;;;;;;;;;;24.04;41.43;95619.22;2074058;28;1163;-63
2022/05/27 07:16:10;;;;;;;;;;;;;;;24.05;41.49;95620.88;2073937;28;1142;-62
2022/05/27 07:17:13;;;;;;;;;;;;;;;24.06;41.42;95619.84;2073739;28;994;-61
2022/05/27 07:18:16;;;;;;;;;;;;;;;24.07;41.51;95618.78;2069200;28;1180;-62
2022/05/27 07:19:20;;;;;;;;;;;;;;;24.08;41.32;95617.75;2068856;28;1099;-62
2022/05/27 07:20:22;;;;;;;;;;;;;;;24.09;41.13;95616.72;2074134;28;1010;-61
2022/05/27 07:21:29;;;;;;;;;;;;;;;24.09;41.39;95603.28;2074041;28;1228;-62
2022/05/27 07:22:31;;;;;;;;;;;;;;;24.11;41.38;95611.94;2073768;28;1121;-62
2022/05/27 07:23:34;;;;;;;;;;;;;;;24.12;41.37;95611.72;2074147;28;1188;-63
2022/05/27 07:24:36;;;;;;;;;;;;;;;24.14;41.02;95608.84;2073809;28;1192;-62
2022/05/27 07:25:40;;;;;;;;;;;;;;;24.14;41.42;95611.53;2073706;28;1722;-63
2022/05/27 07:26:42;;;;;;;;;;;;;;;24.16;41.25;95603.25;2073795;28;1318;-62
2022/05/27 07:27:45;;;;;;;;;;;;;;;24.16;41.20;95606.78;2074002;28;1081;-62
2022/05/27 07:28:47;;;;;;;;;;;;;;;24.18;41.11;95603.84;2074109;28;1110;-62
2022/05/27 07:29:50;;;;;;;;;;;;;;;24.19;41.21;95611.72;2068888;28;1188;-62
2022/05/27 07:30:53;;;;;;;;;;;;;;;24.21;41.11;95600.72;2069466;28;1149;-62
2022/05/27 07:31:56;;;;;;;;;;;;;;;24.22;41.18;95599.72;2073671;28;1002;-62
2022/05/27 07:32:58;;;;;;;;;;;;;;;24.20;41.15;95602.59;2073428;28;1183;-62
2022/05/27 07:34:03;;;;;;;;;;;;;;;24.21;41.27;95598.03;2073926;28;1906;-62
2022/05/27 07:35:06;;;;;;;;;;;;;;;24.21;41.15;95604.22;2073784;28;1158;-61
2022/05/27 07:36:08;;;;;;;;;;;;;;;24.23;41.33;95601.34;2074054;28;1114;-63
2022/05/27 07:37:11;;;;;;;;;;;;;;;24.24;41.42;95598.41;2074008;28;1481;-63
2022/05/27 07:38:12;;;;;;;;;;;;;;;24.25;41.29;95596.59;2073709;28;1130;-62
2022/05/27 07:39:15;;;;;;;;;;;;;;;24.26;41.38;95596.34;2073776;28;1077;-62
2022/05/27 07:40:17;;;;;;;;;;;;;;;24.27;41.35;95602.53;2073243;28;1134;-62
2022/05/27 07:41:21;;;;;;;;;;;;;;;24.29;41.14;95597.78;2069168;28;1237;-61
2022/05/27 07:42:23;;;;;;;;;;;;;;;24.29;41.05;95592.41;2069187;28;1073;-61
2022/05/27 07:43:26;;;;;;;;;;;;;;;24.30;40.96;95594.88;2074009;28;1076;-62
2022/05/27 07:44:28;;;;;;;;;;;;;;;24.31;40.96;95588.44;2073725;28;1333;-62
2022/05/27 07:45:32;;;;;;;;;;;;;;;24.32;41.02;95584.72;2073923;28;1058;-63
2022/05/27 07:46:36;;;;;;;;;;;;;;;24.32;40.92;95578.53;2073814;28;1061;-62
2022/05/27 07:47:38;;;;;;;;;;;;;;;24.32;40.95;95579.34;2073210;28;1105;-63
2022/05/27 07:48:41;;;;;;;;;;;;;;;24.32;41.11;95579.34;2073899;28;1057;-62
2022/05/27 07:49:48;;;;;;;;;;;;;;;24.31;41.10;95572.34;2073729;28;1083;-62
2022/05/27 07:50:50;;;;;;;;;;;;;;;24.31;40.80;95577.72;2073901;28;991;-62
2022/05/27 07:51:52;;;;;;;;;;;;;;;24.30;41.07;95584.13;2073843;28;1089;-62
2022/05/27 07:52:54;;;;;;;;;;;;;;;24.30;40.73;95576.06;2065966;28;1130;-62
2022/05/27 07:53:57;;;;;;;;;;;;;;;24.32;40.58;95573.97;2072743;28;998;-61
2022/05/27 07:55:00;;;;;;;;;;;;;;;24.33;40.83;95574.78;2073274;28;1906;-62
2022/05/27 07:56:03;;;;;;;;;;;;;;;24.32;40.65;95568.59;2074045;28;1260;-62
2022/05/27 07:57:23;;;;;;;;;;;;;;;24.32;40.54;95573.97;2074151;28;1082;-62
2022/05/27 07:58:26;;;;;;;;;;;;;;;24.33;40.37;95569.41;2075884;28;1223;-63
2022/05/27 07:59:28;;;;;;;;;;;;;;;24.34;40.46;95571.06;2081864;28;1064;-63
2022/05/27 08:00:32;;;;;;;;;;;;;;;24.35;40.49;95573.53;2081956;28;1022;-63
2022/05/27 08:01:36;;;;;;;;;;;;;;;24.35;40.30;95570.84;2082174;28;1117;-62
2022/05/27 08:02:38;;;;;;;;;;;;;;;24.36;40.18;95569.00;2082983;28;1114;-62
2022/05/27 08:03:42;;;;;;;;;;;;;;;24.38;40.37;95566.06;2079365;28;1151;-62
2022/05/27 08:04:45;;;;;;;;;;;;;;;24.39;39.94;95573.06;2078663;28;1185;-63
2022/05/27 08:05:49;;;;;;;;;;;;;;;24.38;40.38;95568.75;2083634;28;1022;-63
2022/05/27 08:06:50;;;;;;;;;;;;;;;24.39;40.18;95571.25;2083862;28;1061;-62
2022/05/27 08:07:54;;;;;;;;;;;;;;;24.40;40.11;95566.69;2083660;28;1072;-63
2022/05/27 08:08:57;;;;;;;;;;;;;;;24.41;40.00;95568.31;2083523;28;1100;-62
2022/05/27 08:09:59;;;;;;;;;;;;;;;24.42;40.00;95572.66;2083198;28;1152;-60
2022/05/27 08:11:02;;;;;;;;;;;;;;;24.42;39.88;95564.59;2083527;28;1284;-62
2022/05/27 08:12:05;;;;;;;;;;;;;;;24.43;39.67;95568.91;2083530;28;1126;-62
2022/05/27 08:13:08;;;;;;;;;;;;;;;24.43;39.73;95561.69;2083678;28;1122;-62
2022/05/27 08:14:11;;;;;;;;;;;;;;;24.42;39.54;95562.72;2083478;28;1169;-64
2022/05/27 08:15:13;;;;;;;;;;;;;;;24.43;39.97;95564.38;2078969;28;1902;-62
2022/05/27 08:16:16;;;;;;;;;;;;;;;24.43;39.78;95556.31;2078466;28;1176;-62
2022/05/27 08:17:18;;;;;;;;;;;;;;;24.43;39.68;95560.88;2083136;28;1081;-64
2022/05/27 08:18:21;;;;;;;;;;;;;;;24.42;39.89;95561.91;2083437;28;983;-62
2022/05/27 08:19:23;;;;;;;;;;;;;;;24.42;40.03;95556.53;2083553;28;1003;-63
2022/05/27 08:20:28;;;;;;;;;;;;;;;24.41;40.08;95552.19;2083233;28;991;-63
2022/05/27 08:21:36;;;;;;;;;;;;;;;24.42;39.95;95556.53;2083422;28;1126;-63
2022/05/27 08:22:37;;;;;;;;;;;;;;;24.42;40.08;95551.16;2083402;28;1558;-63
2022/05/27 08:23:40;;;;;;;;;;;;;;;24.42;39.99;95559.22;2083381;28;1177;-62
2022/05/27 08:24:42;;;;;;;;;;;;;;;24.42;40.00;95551.16;2082971;28;1081;-63
2022/05/27 08:25:46;;;;;;;;;;;;;;;24.42;40.18;95557.34;2083412;28;1014;-63
2022/05/27 08:26:47;;;;;;;;;;;;;;;24.41;40.07;95549.50;2076125;28;1145;-63
2022/05/27 08:27:50;;;;;;;;;;;;;;;24.39;40.03;95557.81;2081963;28;1751;-63
2022/05/27 08:28:54;;;;;;;;;;;;;;;24.37;40.37;95548.31;2083298;28;1070;-62
2022/05/27 08:29:56;;;;;;;;;;;;;;;24.34;40.14;95547.72;2083312;28;1114;-62
2022/05/27 08:30:59;;;;;;;;;;;;;;;24.34;40.38;95550.41;2083277;28;1046;-63
2022/05/27 08:32:03;;;;;;;;;;;;;;;24.35;40.30;95543.97;2082851;28;1006;-64
2022/05/27 08:33:06;;;;;;;;;;;;;;;24.36;40.04;95544.81;2083321;28;1196;-64
2022/05/27 08:38:14;;;;;;;;;;;;;;;24.40;39.52;95548.69;2074677;28;1155;-67
2022/05/27 08:39:16;;;;;;;;;;;;;;;24.40;39.63;95537.94;2082581;28;1073;-63
2022/05/27 08:40:30;;;;;;;;;;;;;;;24.41;39.79;95533.41;2082934;28;1130;-62
2022/05/27 08:41:40;;;;;;;;;;;;;;;24.41;39.59;95536.09;2083371;28;1393;-63
2022/05/27 08:42:46;;;;;;;;;;;;;;;24.41;39.57;95533.41;2083317;28;1201;-62
2022/05/27 08:43:58;;;;;;;;;;;;;;;24.41;39.85;95533.41;2083250;28;1169;-63
2022/05/27 08:45:03;;;;;;;;;;;;;;;24.40;39.69;95537.94;2083362;28;1528;-62
2022/05/27 08:46:11;;;;;;;;;;;;;;;24.41;40.01;95536.09;2083478;28;1181;-62
2022/05/27 08:47:18;;;;;;;;;;;;;;;24.41;39.66;95536.09;2082804;28;1100;-62
2022/05/27 08:48:21;;;;;;;;;;;;;;;24.41;39.66;95534.22;2083462;28;1022;-62
2022/05/27 08:49:27;;;;;;;;;;;;;;;24.40;39.42;95521.84;2078391;28;1062;-66
2022/05/27 08:50:35;;;;;;;;;;;;;;;24.43;39.35;95531.31;2080928;28;1298;-62
2022/05/27 08:51:41;;;;;;;;;;;;;;;24.42;39.68;95535.88;2083243;28;1104;-65
2022/05/27 08:52:44;;;;;;;;;;;;;;;24.43;39.50;95536.69;2083368;28;1030;-62
2022/05/27 08:53:49;;;;;;;;;;;;;;;24.43;39.58;95528.63;2082796;28;1042;-65
2022/05/27 08:54:56;;;;;;;;;;;;;;;24.42;39.64;95535.06;2083052;28;1113;-63
2022/05/27 09:00:10;;;;;;;;;;;;;;;24.45;39.49;95521.19;2074320;28;1193;-64
2022/05/27 09:01:12;;;;;;;;;;;;;;;24.47;39.42;95519.06;2068361;28;1182;-63